Time;durP1;ratioP1;P1;durP2;ratioP2;P2;SDS_P1;SDS_P2;PMS_P1;PMS_P2;Temp;Humidity;BMP_temperature;BMP_pressure;BME280_temperature;BME280_humidity;BME280_pressure;Samples;Min_cycle;Max_cycle;Signal;HPM_P1;HPM_P2
2024/01/13 00:02:06;;;;;;;22.15;15.07;;;;;;;2.48;100.00;102751.34;5068936;28;20385;-69
2024/01/13 00:04:33;;;;;;;26.13;15.77;;;;;;;2.48;100.00;102749.66;5084610;28;20521;-69
2024/01/13 00:07:00;;;;;;;22.95;15.05;;;;;;;2.47;100.00;102750.47;5080006;28;20049;-70
2024/01/13 00:09:27;;;;;;;20.83;14.50;;;;;;;2.48;100.00;102746.13;5078436;28;20515;-70
2024/01/13 00:11:54;;;;;;;28.00;16.10;;;;;;;2.47;100.00;102741.75;5084567;28;20040;-70
2024/01/13 00:14:21;;;;;;;22.55;15.98;;;;;;;2.46;100.00;102727.88;5068632;28;20555;-70
2024/01/13 00:16:49;;;;;;;23.45;14.80;;;;;;;2.47;100.00;102729.66;5090022;28;20044;-70
2024/01/13 00:19:16;;;;;;;23.25;15.25;;;;;;;2.49;100.00;102735.75;5066061;28;20083;-70
2024/01/13 00:21:43;;;;;;;26.05;15.85;;;;;;;2.49;100.00;102727.09;5070590;28;20071;-70
2024/01/13 00:24:10;;;;;;;20.15;14.52;;;;;;;2.48;100.00;102721.00;5066602;28;20050;-70
2024/01/13 00:26:38;;;;;;;26.25;15.32;;;;;;;2.46;100.00;102725.28;5067625;28;20048;-71
2024/01/13 00:29:05;;;;;;;23.27;16.23;;;;;;;2.46;100.00;102724.38;5068561;28;20117;-71
2024/01/13 00:31:32;;;;;;;27.17;16.65;;;;;;;2.45;100.00;102720.91;5081128;28;20663;-71
2024/01/13 00:33:59;;;;;;;23.88;16.67;;;;;;;2.46;100.00;102714.84;5071107;28;20072;-71
2024/01/13 00:36:26;;;;;;;24.95;16.00;;;;;;;2.46;100.00;102709.66;5078103;28;20060;-71
2024/01/13 00:38:54;;;;;;;25.42;16.75;;;;;;;2.46;100.00;102708.75;5066342;28;20252;-71
2024/01/13 00:41:21;;;;;;;26.42;17.50;;;;;;;2.48;100.00;102709.69;5077141;28;20040;-71
2024/01/13 00:43:48;;;;;;;25.45;17.10;;;;;;;2.48;100.00;102707.09;5070705;28;20045;-70
2024/01/13 00:46:15;;;;;;;23.05;16.25;;;;;;;2.50;100.00;102710.63;5069423;28;20144;-71
2024/01/13 00:48:42;;;;;;;27.95;18.23;;;;;;;2.50;100.00;102702.81;5065869;28;20114;-71
2024/01/13 00:51:11;;;;;;;28.55;19.60;;;;;;;2.51;100.00;102706.28;5095931;28;20043;-70
2024/01/13 00:53:41;;;;;;;29.70;19.75;;;;;;;2.50;100.00;102708.03;5085227;28;20377;-70
2024/01/13 00:56:08;;;;;;;28.50;20.42;;;;;;;2.48;100.00;102709.69;5077542;28;20406;-71
2024/01/13 00:58:37;;;;;;;32.33;18.90;;;;;;;2.48;100.00;102701.88;5082626;28;20198;-71
2024/01/13 01:01:12;;;;;;;30.92;19.52;;;;;;;2.48;100.00;102700.19;5066544;28;20055;-70
2024/01/13 01:03:43;;;;;;;27.13;18.88;;;;;;;2.48;100.00;102688.84;5082440;28;20068;-70
2024/01/13 01:06:11;;;;;;;27.42;19.10;;;;;;;2.46;100.00;102677.50;5084231;28;20040;-70
2024/01/13 01:08:39;;;;;;;27.98;18.90;;;;;;;2.47;100.00;102685.38;5076334;28;20512;-70
2024/01/13 01:11:08;;;;;;;23.90;17.52;;;;;;;2.47;100.00;102690.59;5070406;28;20222;-70
2024/01/13 01:13:37;;;;;;;27.00;18.15;;;;;;;2.47;100.00;102685.38;5064241;28;20076;-70
2024/01/13 01:16:05;;;;;;;26.48;17.35;;;;;;;2.45;100.00;102683.53;5066158;28;20040;-70
2024/01/13 01:18:32;;;;;;;25.00;16.90;;;;;;;2.41;100.00;102685.16;5074355;28;20094;-70
2024/01/13 01:21:16;;;;;;;22.98;15.45;;;;;;;2.39;100.00;102670.34;5080016;28;20117;-70
2024/01/13 01:23:48;;;;;;;24.23;16.90;;;;;;;2.41;100.00;102669.53;5085971;28;20040;-70
2024/01/13 01:26:16;;;;;;;23.77;16.65;;;;;;;2.42;100.00;102671.31;5068919;28;20085;-70
2024/01/13 01:28:43;;;;;;;26.38;17.77;;;;;;;2.43;100.00;102669.63;5086328;28;20070;-70
2024/01/13 01:31:10;;;;;;;25.70;16.75;;;;;;;2.44;100.00;102667.06;5100790;28;20048;-69
2024/01/13 01:33:37;;;;;;;25.02;17.55;;;;;;;2.46;100.00;102661.88;5084921;28;20036;-70
2024/01/13 01:36:07;;;;;;;28.98;18.15;;;;;;;2.46;100.00;102654.97;5080704;28;20060;-69
2024/01/13 01:38:36;;;;;;;27.15;19.05;;;;;;;2.48;100.00;102652.41;5077804;28;20756;-70
2024/01/13 01:41:15;;;;;;;29.73;19.23;;;;;;;2.49;100.00;102656.78;5078593;28;20044;-70
2024/01/13 01:43:45;;;;;;;27.38;18.27;;;;;;;2.53;100.00;102662.97;5076909;28;20036;-70
2024/01/13 01:46:16;;;;;;;27.73;19.10;;;;;;;2.54;100.00;102656.94;5073996;28;20045;-70
2024/01/13 01:48:46;;;;;;;29.48;19.88;;;;;;;2.54;100.00;102655.22;5083349;28;20044;-70
2024/01/13 01:51:17;;;;;;;29.52;17.80;;;;;;;2.55;100.00;102662.19;5069276;28;20048;-70
2024/01/13 01:53:47;;;;;;;27.92;17.85;;;;;;;2.56;100.00;102653.53;5070410;28;20078;-70
2024/01/13 01:56:26;;;;;;;31.25;17.92;;;;;;;2.59;100.00;102647.56;5084703;28;20507;-70
2024/01/13 01:58:55;;;;;;;26.50;17.33;;;;;;;2.57;100.00;102655.31;5070825;28;20047;-70
2024/01/13 02:01:24;;;;;;;27.70;18.35;;;;;;;2.60;100.00;102649.28;5082875;28;20066;-70
2024/01/13 02:03:52;;;;;;;27.38;18.52;;;;;;;2.61;100.00;102651.97;5081641;28;20047;-70
2024/01/13 02:06:20;;;;;;;28.48;19.52;;;;;;;2.60;100.00;102650.19;5068988;28;20466;-70
2024/01/13 02:08:49;;;;;;;34.08;20.75;;;;;;;2.60;100.00;102652.81;5069538;28;20523;-70
2024/01/13 02:11:17;;;;;;;28.17;18.35;;;;;;;2.61;100.00;102651.06;5080142;28;20058;-71
2024/01/13 02:13:46;;;;;;;28.58;20.00;;;;;;;2.59;100.00;102643.22;5078856;28;20518;-70
2024/01/13 02:16:16;;;;;;;29.15;19.98;;;;;;;2.60;100.00;102637.19;5085473;28;20500;-70
2024/01/13 02:18:44;;;;;;;30.67;19.88;;;;;;;2.61;100.00;102636.34;5068937;28;20048;-70
2024/01/13 02:21:12;;;;;;;32.00;20.00;;;;;;;2.60;100.00;102624.16;5078100;28;20444;-70
2024/01/13 02:23:42;;;;;;;31.83;20.88;;;;;;;2.60;100.00;102625.88;5074595;28;20036;-70
2024/01/13 02:26:10;;;;;;;28.33;18.20;;;;;;;2.60;100.00;102625.88;5080392;28;20131;-70
2024/01/13 02:28:37;;;;;;;30.15;19.48;;;;;;;2.59;100.00;102624.13;5089438;28;20093;-70
2024/01/13 02:31:16;;;;;;;31.33;20.20;;;;;;;2.56;100.00;102631.84;5085386;28;20048;-70
2024/01/13 02:33:52;;;;;;;29.98;19.15;;;;;;;2.52;100.00;102619.53;5071383;28;20139;-70
2024/01/13 02:36:22;;;;;;;28.33;17.52;;;;;;;2.49;100.00;102613.38;5082342;28;20063;-70
2024/01/13 02:38:51;;;;;;;28.17;17.92;;;;;;;2.47;100.00;102599.47;5077290;28;20044;-69
2024/01/13 02:41:19;;;;;;;27.65;18.00;;;;;;;2.49;100.00;102594.28;5079808;28;20340;-70
2024/01/13 02:43:46;;;;;;;25.73;16.65;;;;;;;2.49;100.00;102592.56;5069078;28;20044;-70
2024/01/13 02:46:13;;;;;;;23.75;16.83;;;;;;;2.46;100.00;102582.06;5068979;28;20067;-70
2024/01/13 02:48:46;;;;;;;21.77;15.07;;;;;;;2.46;100.00;102576.88;5090564;28;20067;-70
2024/01/13 02:51:16;;;;;;;21.85;14.95;;;;;;;2.44;100.00;102569.84;5081540;28;20040;-70
2024/01/13 02:53:46;;;;;;;22.98;14.88;;;;;;;2.44;100.00;102562.91;5075711;28;20131;-70
2024/01/13 02:56:13;;;;;;;21.35;15.07;;;;;;;2.47;100.00;102556.91;5088649;28;20092;-70
2024/01/13 02:58:41;;;;;;;20.08;14.45;;;;;;;2.47;100.00;102557.81;5087074;28;20036;-70
2024/01/13 03:01:14;;;;;;;19.48;14.30;;;;;;;2.49;100.00;102556.09;5083708;28;20048;-70
2024/01/13 03:03:49;;;;;;;22.35;13.95;;;;;;;2.51;100.00;102547.47;5075385;28;20044;-69
2024/01/13 03:06:22;;;;;;;20.17;13.18;;;;;;;2.49;100.00;102542.22;5088091;28;20040;-70
2024/01/13 03:08:53;;;;;;;18.73;13.57;;;;;;;2.51;100.00;102543.16;5075179;28;20044;-70
2024/01/13 03:11:21;;;;;;;16.92;13.02;;;;;;;2.50;100.00;102541.38;5072219;28;20516;-70
2024/01/13 03:13:53;;;;;;;16.30;12.02;;;;;;;2.52;100.00;102541.44;5086593;28;20438;-70
2024/01/13 03:16:20;;;;;;;16.48;12.25;;;;;;;2.52;100.00;102541.44;5078170;28;20068;-70
2024/01/13 03:18:47;;;;;;;17.60;13.63;;;;;;;2.49;100.00;102532.69;5072609;28;20527;-70
2024/01/13 03:21:14;;;;;;;17.30;12.60;;;;;;;2.49;100.00;102534.41;5084709;28;20036;-70
2024/01/13 03:23:45;;;;;;;17.30;12.90;;;;;;;2.48;100.00;102535.25;5082549;28;20121;-69
2024/01/13 03:26:13;;;;;;;16.85;12.10;;;;;;;2.50;100.00;102528.38;5072559;28;20132;-70
2024/01/13 03:28:42;;;;;;;20.23;12.90;;;;;;;2.49;100.00;102519.66;5087388;28;20050;-70
2024/01/13 03:31:13;;;;;;;16.73;13.23;;;;;;;2.50;100.00;102507.53;5077378;28;20425;-70
2024/01/13 03:33:45;;;;;;;17.83;12.77;;;;;;;2.51;100.00;102514.53;5081594;28;20445;-70
2024/01/13 03:36:15;;;;;;;19.00;12.80;;;;;;;2.50;100.00;102507.53;5083897;28;20539;-70
2024/01/13 03:38:42;;;;;;;19.60;13.70;;;;;;;2.47;100.00;102500.53;5084835;28;20052;-70
2024/01/13 03:41:18;;;;;;;19.27;14.35;;;;;;;2.45;100.00;102499.59;5085611;28;20044;-70
2024/01/13 03:43:45;;;;;;;;;;;;;;;2.41;100.00;102510.75;5071151;28;20508;-70
2024/01/13 03:46:13;;;;;;;22.27;14.38;;;;;;;2.39;100.00;102502.00;5066818;28;19928;-70
2024/01/13 03:48:40;;;;;;;25.08;15.60;;;;;;;2.36;100.00;102491.50;5085753;28;20044;-70
2024/01/13 03:51:09;;;;;;;20.95;15.75;;;;;;;2.38;100.00;102497.66;5081255;28;20044;-70
2024/01/13 03:53:37;;;;;;;23.17;16.05;;;;;;;2.39;100.00;102490.72;5087010;28;20100;-70
2024/01/13 03:56:05;;;;;;;23.20;16.45;;;;;;;2.40;100.00;102487.28;5077321;28;20056;-70
2024/01/13 03:58:33;;;;;;;22.25;16.10;;;;;;;2.40;100.00;102485.53;5082219;28;20036;-70
2024/01/13 04:01:03;;;;;;;21.27;16.02;;;;;;;2.41;100.00;102481.22;5068077;28;20052;-70
2024/01/13 04:03:31;;;;;;;22.08;17.42;;;;;;;2.42;100.00;102472.59;5070137;28;20047;-70
2024/01/13 04:06:02;;;;;;;23.83;17.63;;;;;;;2.42;100.00;102470.00;5080073;28;20059;-70
2024/01/13 04:08:32;;;;;;;25.98;17.20;;;;;;;2.42;100.00;102464.78;5075322;28;20052;-70
2024/01/13 04:11:00;;;;;;;24.75;17.08;;;;;;;2.44;100.00;102470.94;5078572;28;20061;-70
2024/01/13 04:13:27;;;;;;;25.83;18.98;;;;;;;2.44;100.00;102463.97;5083820;28;20289;-70
2024/01/13 04:15:54;;;;;;;23.27;18.13;;;;;;;2.44;100.00;102465.72;5093044;28;20046;-70
2024/01/13 04:18:21;;;;;;;25.58;19.50;;;;;;;2.45;100.00;102457.94;5077779;28;20074;-70
2024/01/13 04:20:49;;;;;;;24.70;18.75;;;;;;;2.46;100.00;102456.22;5072030;28;20193;-70
2024/01/13 04:23:29;;;;;;;23.88;18.55;;;;;;;2.46;100.00;102459.72;5079308;28;20074;-70
2024/01/13 04:25:56;;;;;;;23.90;18.40;;;;;;;2.47;100.00;102458.88;5084456;28;20101;-70
2024/01/13 04:28:23;;;;;;;25.40;18.80;;;;;;;2.47;100.00;102450.16;5066340;28;20109;-70
2024/01/13 04:30:50;;;;;;;22.45;17.35;;;;;;;2.48;100.00;102450.22;5065095;28;20055;-71
2024/01/13 04:33:17;;;;;;;23.98;18.42;;;;;;;2.50;100.00;102445.06;5083359;28;20280;-70
2024/01/13 04:35:45;;;;;;;24.50;18.70;;;;;;;2.49;100.00;102440.69;5081248;28;20056;-70
2024/01/13 04:38:12;;;;;;;22.38;18.40;;;;;;;2.50;100.00;102437.25;5082101;28;20074;-71
2024/01/13 04:40:39;;;;;;;22.63;17.30;;;;;;;2.51;100.00;102445.91;5084363;28;20043;-71
2024/01/13 04:43:06;;;;;;;22.48;17.70;;;;;;;2.49;100.00;102448.50;5070213;28;20063;-71
2024/01/13 04:45:33;;;;;;;22.50;17.98;;;;;;;2.49;100.00;102451.97;5093689;28;20056;-71
2024/01/13 04:48:01;;;;;;;24.90;18.00;;;;;;;2.51;100.00;102446.81;5084188;28;20048;-71
2024/01/13 04:50:28;;;;;;;22.48;18.70;;;;;;;2.51;100.00;102441.63;5085195;28;20040;-71
2024/01/13 04:52:55;;;;;;;21.83;17.95;;;;;;;2.48;100.00;102442.41;5082532;28;20122;-71
2024/01/13 04:55:22;;;;;;;22.38;17.70;;;;;;;2.49;100.00;102440.69;5079014;28;20044;-70
2024/01/13 04:57:49;;;;;;;21.95;17.90;;;;;;;2.49;100.00;102432.88;5072242;28;20047;-70
2024/01/13 05:00:17;;;;;;;26.23;17.70;;;;;;;2.50;100.00;102434.66;5066719;28;20047;-71
2024/01/13 05:02:44;;;;;;;22.48;18.17;;;;;;;2.49;100.00;102438.94;5068607;28;20094;-71
2024/01/13 05:05:20;;;;;;;19.73;17.02;;;;;;;2.49;100.00;102438.94;5081124;28;20047;-70
2024/01/13 05:07:47;;;;;;;24.10;17.65;;;;;;;2.49;100.00;102441.56;5079622;28;20474;-70
2024/01/13 05:10:14;;;;;;;22.45;17.15;;;;;;;2.49;100.00;102440.69;5082824;28;20051;-70
2024/01/13 05:12:41;;;;;;;21.85;17.60;;;;;;;2.49;100.00;102453.69;5080307;28;20052;-70
2024/01/13 05:15:09;;;;;;;19.90;16.75;;;;;;;2.52;100.00;102456.41;5074845;28;20044;-70
2024/01/13 05:17:36;;;;;;;20.52;17.13;;;;;;;2.51;100.00;102441.63;5081146;28;20119;-70
2024/01/13 05:20:05;;;;;;;22.13;17.98;;;;;;;2.52;100.00;102439.88;5088384;28;20322;-70
2024/01/13 05:22:33;;;;;;;19.58;16.85;;;;;;;2.51;100.00;102440.72;5080696;28;20047;-70
2024/01/13 05:25:01;;;;;;;20.45;16.10;;;;;;;2.51;100.00;102433.81;5078289;28;20054;-70
2024/01/13 05:27:28;;;;;;;20.50;17.17;;;;;;;2.52;100.00;102439.88;5087989;28;20047;-70
2024/01/13 05:29:55;;;;;;;19.85;16.58;;;;;;;2.52;100.00;102426.88;5077102;28;20040;-70
2024/01/13 05:32:22;;;;;;;20.40;15.77;;;;;;;2.52;100.00;102426.88;5086602;28;20040;-70
2024/01/13 05:34:49;;;;;;;18.02;15.50;;;;;;;2.51;100.00;102428.59;5079064;28;20043;-71
2024/01/13 05:37:16;;;;;;;17.38;14.60;;;;;;;2.52;100.00;102427.75;5081893;28;20048;-70
2024/01/13 05:39:43;;;;;;;16.38;14.30;;;;;;;2.53;100.00;102424.31;5077341;28;20090;-70
2024/01/13 05:42:10;;;;;;;16.65;14.23;;;;;;;2.52;100.00;102422.56;5083577;28;20142;-70
2024/01/13 05:44:38;;;;;;;15.85;14.15;;;;;;;2.54;100.00;102420.88;5086108;28;20036;-69
2024/01/13 05:47:08;;;;;;;16.73;13.70;;;;;;;2.54;100.00;102415.69;5097430;28;20052;-70
2024/01/13 05:49:35;;;;;;;15.23;12.38;;;;;;;2.56;100.00;102411.38;5075565;28;20470;-70
2024/01/13 05:52:10;;;;;;;13.95;11.65;;;;;;;2.57;100.00;102407.94;5097025;28;20134;-70
2024/01/13 05:54:39;;;;;;;14.25;11.68;;;;;;;2.58;100.00;102417.50;5080253;28;20039;-71
2024/01/13 05:57:06;;;;;;;13.70;12.27;;;;;;;2.58;100.00;102419.25;5075980;28;20050;-70
2024/01/13 05:59:33;;;;;;;12.00;10.30;;;;;;;2.60;100.00;102409.72;5077074;28;20036;-70
2024/01/13 06:02:00;;;;;;;11.93;10.20;;;;;;;2.61;100.00;102406.28;5080362;28;20048;-70
2024/01/13 06:04:27;;;;;;;12.90;10.18;;;;;;;2.62;100.00;102411.56;5074941;28;20461;-70
2024/01/13 06:06:57;;;;;;;10.57;9.20;;;;;;;2.65;100.00;102410.75;5075316;28;20047;-70
2024/01/13 06:09:24;;;;;;;11.88;9.27;;;;;;;2.67;100.00;102414.28;5077754;28;20598;-70
2024/01/13 06:11:51;;;;;;;8.95;7.90;;;;;;;2.69;100.00;102409.13;5077416;28;20032;-71
2024/01/13 06:14:18;;;;;;;9.60;8.30;;;;;;;2.69;100.00;102412.63;5080667;28;20090;-71
2024/01/13 06:16:45;;;;;;;12.85;9.27;;;;;;;2.70;100.00;102382.22;5081677;28;20572;-71
2024/01/13 06:19:15;;;;;;;10.82;8.52;;;;;;;2.69;100.00;102373.56;5078993;28;20040;-70
2024/01/13 06:21:48;;;;;;;9.52;7.65;;;;;;;2.70;100.00;102369.22;5076019;28;20063;-70
2024/01/13 06:24:15;;;;;;;10.10;8.20;;;;;;;2.70;100.00;102356.19;5080748;28;20610;-69
2024/01/13 06:26:45;;;;;;;11.45;8.82;;;;;;;2.70;100.00;102359.66;5075478;28;21587;-70
2024/01/13 06:29:13;;;;;;;10.80;8.60;;;;;;;2.68;100.00;102363.97;5076363;28;20561;-68
2024/01/13 06:31:39;;;;;;;13.05;9.52;;;;;;;2.69;100.00;102357.94;5087121;28;20040;-69
2024/01/13 06:34:10;;;;;;;10.98;9.57;;;;;;;2.69;100.00;102367.44;5085120;28;20056;-69
2024/01/13 06:36:37;;;;;;;10.57;9.30;;;;;;;2.69;100.00;102367.44;5077221;28;20056;-70
2024/01/13 06:39:06;;;;;;;11.98;10.02;;;;;;;2.70;100.00;102369.22;5079573;28;20066;-70
2024/01/13 06:41:33;;;;;;;12.40;10.93;;;;;;;2.70;100.00;102372.69;5081671;28;20040;-70
2024/01/13 06:44:02;;;;;;;14.50;10.77;;;;;;;2.70;100.00;102369.22;5079597;28;20082;-70
2024/01/13 06:46:29;;;;;;;14.07;12.23;;;;;;;2.70;100.00;102364.00;5090966;28;20445;-70
2024/01/13 06:48:56;;;;;;;15.27;12.75;;;;;;;2.72;100.00;102355.38;5074755;28;20040;-71
2024/01/13 06:51:23;;;;;;;14.50;12.88;;;;;;;2.73;100.00;102338.91;5079807;28;20096;-70
2024/01/13 06:53:54;;;;;;;16.02;13.38;;;;;;;2.73;100.00;102333.72;5094484;28;20074;-70
2024/01/13 06:56:21;;;;;;;17.92;14.55;;;;;;;2.72;100.00;102329.34;5077444;28;20141;-71
2024/01/13 06:58:48;;;;;;;20.13;15.32;;;;;;;2.73;100.00;102325.91;5080205;28;20060;-70
2024/01/13 07:01:15;;;;;;;19.20;15.43;;;;;;;2.73;100.00;102318.09;5075895;28;20040;-71
2024/01/13 07:03:42;;;;;;;20.50;16.88;;;;;;;2.72;100.00;102303.28;5094105;28;20049;-71
2024/01/13 07:06:10;;;;;;;23.05;17.90;;;;;;;2.72;100.00;102303.28;5081693;28;20072;-71
2024/01/13 07:08:38;;;;;;;24.30;18.75;;;;;;;2.72;100.00;102298.09;5074873;28;20059;-70
2024/01/13 07:11:15;;;;;;;22.90;18.77;;;;;;;2.74;100.00;102292.94;5092312;28;20059;-70
2024/01/13 07:13:43;;;;;;;25.05;18.98;;;;;;;2.73;100.00;102292.03;5082767;28;20289;-70
2024/01/13 07:16:13;;;;;;;23.48;19.05;;;;;;;2.74;100.00;102280.78;5094532;28;20051;-70
2024/01/13 07:18:41;;;;;;;27.35;20.25;;;;;;;2.76;100.00;102283.41;5084311;28;20039;-70
2024/01/13 07:21:08;;;;;;;26.80;21.70;;;;;;;2.75;100.00;102289.47;5078590;28;20045;-70
2024/01/13 07:23:35;;;;;;;28.42;21.30;;;;;;;2.75;100.00;102287.75;5077866;28;20040;-75
2024/01/13 07:26:03;;;;;;;27.75;21.77;;;;;;;2.74;100.00;102295.53;5095633;28;20518;-71
2024/01/13 07:28:31;;;;;;;31.83;22.67;;;;;;;2.77;100.00;102286.06;5080642;28;20055;-69
2024/01/13 07:30:58;;;;;;;27.38;22.05;;;;;;;2.76;100.00;102284.31;5078817;28;20419;-70
2024/01/13 07:33:26;;;;;;;28.73;23.20;;;;;;;2.76;100.00;102281.69;5075743;28;20044;-75
2024/01/13 07:35:53;;;;;;;29.20;22.75;;;;;;;2.76;100.00;102286.00;5075216;28;20419;-70
2024/01/13 07:38:21;;;;;;;30.38;23.13;;;;;;;2.78;100.00;102286.94;5074220;28;20041;-70
2024/01/13 07:40:48;;;;;;;31.27;24.05;;;;;;;2.78;100.00;102280.03;5084432;28;20036;-70
2024/01/13 07:43:15;;;;;;;32.08;25.55;;;;;;;2.77;100.00;102264.34;5080533;28;20044;-70
2024/01/13 07:45:42;;;;;;;32.42;24.75;;;;;;;2.75;100.00;102269.53;5089886;28;20043;-70
2024/01/13 07:48:09;;;;;;;35.80;24.63;;;;;;;2.75;100.00;102276.44;5086822;28;20054;-70
2024/01/13 07:50:38;;;;;;;33.10;25.48;;;;;;;2.74;100.00;102266.91;5076955;28;20043;-70
2024/01/13 07:53:06;;;;;;;35.42;25.65;;;;;;;2.74;100.00;102275.56;5080888;28;20119;-70
2024/01/13 07:55:33;;;;;;;35.08;25.88;;;;;;;2.75;100.00;102264.31;5078567;28;20048;-71
2024/01/13 07:58:00;;;;;;;32.72;26.20;;;;;;;2.74;100.00;102266.91;5076700;28;20051;-70
2024/01/13 08:00:27;;;;;;;35.33;26.02;;;;;;;2.75;100.00;102264.31;5073769;28;20503;-69
2024/01/13 08:02:55;;;;;;;36.15;26.30;;;;;;;2.74;100.00;102246.91;5070539;28;20072;-70
2024/01/13 08:05:22;;;;;;;35.45;27.13;;;;;;;2.75;100.00;102229.56;5077381;28;20040;-70
2024/01/13 08:07:51;;;;;;;33.65;25.27;;;;;;;2.74;100.00;102226.09;5076387;28;20040;-69
2024/01/13 08:10:19;;;;;;;34.67;25.75;;;;;;;2.73;100.00;102231.28;5083684;28;20089;-70
2024/01/13 08:12:46;;;;;;;34.83;25.02;;;;;;;2.75;100.00;102237.38;5087896;28;20440;-76
2024/01/13 08:15:14;;;;;;;34.08;24.75;;;;;;;2.76;100.00;102233.94;5087166;28;20131;-70
2024/01/13 08:17:41;;;;;;;33.40;25.60;;;;;;;2.75;100.00;102227.84;5082347;28;20525;-69
2024/01/13 08:20:09;;;;;;;31.63;23.25;;;;;;;2.77;100.00;102225.28;5067042;28;20037;-69
2024/01/13 08:22:36;;;;;;;32.95;24.90;;;;;;;2.92;100.00;102223.06;5069865;28;20086;-67
2024/01/13 08:25:04;;;;;;;31.67;23.90;;;;;;;3.16;100.00;102223.56;5068798;28;20338;-68
2024/01/13 08:27:31;;;;;;;32.40;24.90;;;;;;;3.32;100.00;102228.28;5084556;28;20075;-67
2024/01/13 08:29:58;;;;;;;30.75;23.90;;;;;;;3.46;100.00;102223.34;5086463;28;20080;-67
2024/01/13 08:32:25;;;;;;;29.08;23.17;;;;;;;3.60;100.00;102210.63;5095208;28;20399;-69
2024/01/13 08:34:52;;;;;;;29.30;23.20;;;;;;;3.70;100.00;102223.00;5086036;28;20055;-70
2024/01/13 08:37:20;;;;;;;29.67;23.02;;;;;;;3.79;100.00;102231.88;5067484;28;20044;-67
2024/01/13 08:39:47;;;;;;;28.52;22.52;;;;;;;3.79;100.00;102240.56;5085459;28;20044;-67
2024/01/13 08:42:14;;;;;;;28.13;22.08;;;;;;;3.80;100.00;102233.63;5071841;28;20047;-67
2024/01/13 08:44:41;;;;;;;25.92;21.65;;;;;;;3.84;100.00;102249.38;5073497;28;20119;-69
2024/01/13 08:47:11;;;;;;;26.48;21.80;;;;;;;3.85;100.00;102237.19;5082673;28;20111;-69
2024/01/13 08:49:39;;;;;;;28.15;21.75;;;;;;;3.83;100.00;102241.50;5085837;28;20052;-68
2024/01/13 08:52:09;;;;;;;29.00;21.73;;;;;;;3.82;100.00;102231.91;5078258;28;20090;-69
2024/01/13 08:54:36;;;;;;;27.45;21.15;;;;;;;3.80;100.00;102238.84;5082608;28;20492;-69
2024/01/13 08:57:04;;;;;;;27.45;21.33;;;;;;;3.79;100.00;102232.72;5073007;28;20598;-68
2024/01/13 08:59:33;;;;;;;25.48;20.45;;;;;;;3.81;100.00;102228.44;5079917;28;20084;-69
2024/01/13 09:02:00;;;;;;;29.77;22.55;;;;;;;3.80;100.00;102225.81;5074315;28;20036;-69
2024/01/13 09:04:27;;;;;;;26.50;21.38;;;;;;;3.80;100.00;102236.25;5068144;28;20040;-69
2024/01/13 09:06:54;;;;;;;28.83;22.85;;;;;;;3.79;100.00;102227.50;5072436;28;20317;-68
2024/01/13 09:09:21;;;;;;;28.52;22.13;;;;;;;3.81;100.00;102223.22;5072104;28;20123;-67
2024/01/13 09:11:49;;;;;;;27.10;20.98;;;;;;;3.86;100.00;102231.13;5064457;28;20302;-68
2024/01/13 09:14:16;;;;;;;28.27;22.80;;;;;;;3.84;100.00;102231.09;5065040;28;20045;-69
2024/01/13 09:16:44;;;;;;;29.70;23.27;;;;;;;3.83;100.00;102231.06;5070040;28;20048;-67
2024/01/13 09:19:12;;;;;;;26.90;21.90;;;;;;;3.82;100.00;102221.47;5065971;28;20041;-67
2024/01/13 09:21:40;;;;;;;31.80;26.67;;;;;;;3.83;100.00;102225.84;5068039;28;20400;-67
2024/01/13 09:24:16;;;;;;;48.60;37.60;;;;;;;3.86;100.00;102232.03;5082901;28;20036;-67
2024/01/13 09:26:44;;;;;;;36.97;27.27;;;;;;;3.91;100.00;102229.50;5066743;28;20051;-67
2024/01/13 09:29:16;;;;;;;107.95;74.80;;;;;;;3.92;100.00;102222.53;5094008;28;20209;-67
2024/01/13 09:31:48;;;;;;;42.92;32.80;;;;;;;3.91;100.00;102224.28;5071689;28;20036;-70
2024/01/13 09:34:16;;;;;;;173.18;124.57;;;;;;;3.80;100.00;102224.06;5078812;28;20044;-69
2024/01/13 09:36:44;;;;;;;187.77;133.95;;;;;;;3.69;100.00;102228.19;5084222;28;20063;-69
2024/01/13 09:39:18;;;;;;;;;;;;;;;3.55;100.00;102233.09;5077958;28;20044;-70
2024/01/13 09:41:47;;;;;;;239.00;172.15;;;;;;;3.46;100.00;102223.34;5068130;28;19952;-69
2024/01/13 09:44:28;;;;;;;149.93;109.32;;;;;;;3.39;100.00;102216.25;5066474;28;20408;-70
2024/01/13 09:47:01;;;;;;;205.35;137.93;;;;;;;3.34;100.00;102217.91;5071134;28;20055;-70
2024/01/13 09:58:11;;;;;;;132.00;56.97;;;;;;;4.84;100.00;102199.75;4966547;28;20436;-69
2024/01/13 10:00:40;;;;;;;141.77;62.17;;;;;;;4.51;100.00;102195.78;5008532;28;20050;-69
2024/01/13 10:03:07;;;;;;;186.00;78.20;;;;;;;4.16;100.00;102189.09;4999270;28;20129;-69
2024/01/13 10:05:34;;;;;;;111.53;50.33;;;;;;;3.88;100.00;102199.00;5004246;28;20070;-70
2024/01/13 10:08:05;;;;;;;127.68;56.17;;;;;;;3.68;100.00;102192.50;5032465;28;20187;-70
2024/01/13 10:10:34;;;;;;;240.07;101.60;;;;;;;3.53;100.00;102193.97;4992038;28;20051;-70
2024/01/13 10:13:01;;;;;;;115.45;50.03;;;;;;;3.42;100.00;102191.13;5001501;28;20050;-67
2024/01/13 10:15:28;;;;;;;101.65;45.70;;;;;;;3.37;100.00;102195.38;5005280;28;20069;-70
2024/01/13 10:17:55;;;;;;;140.82;57.50;;;;;;;3.31;100.00;102187.41;4988464;28;20050;-68
2024/01/13 10:20:24;;;;;;;147.43;58.60;;;;;;;3.26;100.00;102184.69;5003664;28;20042;-68
2024/01/13 10:22:51;;;;;;;79.20;36.90;;;;;;;3.25;100.00;102176.84;5004078;28;20038;-68
2024/01/13 10:25:19;;;;;;;85.13;36.97;;;;;;;3.24;100.00;102189.03;5004799;28;20050;-68
2024/01/13 10:27:47;;;;;;;230.15;86.50;;;;;;;3.24;100.00;102182.91;5005027;28;20507;-68
2024/01/13 10:30:14;;;;;;;47.95;25.38;;;;;;;3.24;100.00;102188.13;5004697;28;20081;-68
2024/01/13 10:32:42;;;;;;;109.57;46.45;;;;;;;3.26;100.00;102183.84;5002808;28;20042;-68
2024/01/13 10:35:15;;;;;;;38.58;21.95;;;;;;;3.25;100.00;102180.38;4987097;28;20049;-69
2024/01/13 10:37:43;;;;;;;109.95;47.13;;;;;;;3.27;100.00;102167.34;5018682;28;20388;-69
2024/01/13 10:40:10;;;;;;;59.95;30.13;;;;;;;3.28;100.00;102171.72;5017892;28;20483;-68
2024/01/13 10:42:38;;;;;;;73.75;35.90;;;;;;;3.29;100.00;102172.59;5005200;28;20554;-69
2024/01/13 10:45:09;;;;;;;54.92;28.70;;;;;;;3.26;100.00;102165.59;5004209;28;20527;-69
2024/01/13 10:47:45;;;;;;;112.40;48.67;;;;;;;3.27;100.00;102167.34;5020331;28;20034;-69
2024/01/13 10:50:12;;;;;;;91.32;43.85;;;;;;;3.24;100.00;102162.97;4987736;28;20041;-69
2024/01/13 10:53:32;;;;;;;73.75;35.90;;;;;;;3.26;100.00;102148.22;5018062;28;20402;-69
2024/01/13 10:56:01;;;;;;;54.78;28.27;;;;;;;3.26;100.00;102139.53;4985778;28;20069;-69
2024/01/13 10:58:29;;;;;;;43.95;23.27;;;;;;;3.26;100.00;102142.13;5003487;28;20246;-69
2024/01/13 11:00:56;;;;;;;81.82;36.70;;;;;;;3.26;100.00;102135.19;5019756;28;20270;-69
2024/01/13 11:03:24;;;;;;;67.68;31.75;;;;;;;3.26;100.00;102134.31;5002478;28;20054;-69
2024/01/13 11:05:51;;;;;;;51.05;27.77;;;;;;;3.28;100.00;102129.13;5017866;28;20093;-69
2024/01/13 11:08:20;;;;;;;37.55;21.13;;;;;;;3.26;100.00;102119.53;4995044;28;20269;-69
2024/01/13 11:10:51;;;;;;;44.95;23.52;;;;;;;3.25;100.00;102117.81;5004323;28;20462;-69
2024/01/13 11:13:27;;;;;;;112.47;49.05;;;;;;;3.26;100.00;102113.47;4987104;28;20043;-69
2024/01/13 11:16:11;;;;;;;69.75;32.47;;;;;;;3.29;100.00;102115.25;4990544;28;20566;-69
2024/01/13 11:18:46;;;;;;;56.00;31.00;;;;;;;3.29;100.00;102117.84;5005401;28;20161;-69
2024/01/13 11:21:22;;;;;;;99.40;43.97;;;;;;;3.30;100.00;102114.41;4990082;28;20050;-69
2024/01/13 11:24:13;;;;;;;143.50;56.30;;;;;;;3.30;100.00;102104.88;4990429;28;20042;-69
2024/01/13 11:26:46;;;;;;;99.90;42.78;;;;;;;3.32;100.00;102113.56;4990592;28;20046;-69